createdAt,value
2019-03-04T00:01:20.655Z,2.55
2019-03-04T00:04:04.087Z,2.52
2019-03-04T00:06:33.685Z,2.65
2019-03-04T00:09:02.782Z,2.47
2019-03-04T00:11:32.326Z,2.10
2019-03-04T00:14:01.455Z,3.60
2019-03-04T00:16:30.727Z,2.40
2019-03-04T00:19:00.711Z,2.17
2019-03-04T00:21:30.660Z,2.65
2019-03-04T00:23:59.827Z,2.35
2019-03-04T00:26:29.120Z,2.30
2019-03-04T00:28:58.227Z,2.30
2019-03-04T00:31:27.403Z,2.05
2019-03-04T00:33:56.645Z,2.27
2019-03-04T00:36:28.548Z,1.60
2019-03-04T00:39:01.677Z,2.83
2019-03-04T00:41:33.787Z,2.20
2019-03-04T00:44:06.539Z,2.22
2019-03-04T00:46:39.300Z,2.20
2019-03-04T00:49:14.162Z,1.98
2019-03-04T00:51:52.288Z,1.95
2019-03-04T00:54:25.623Z,1.90
2019-03-04T00:56:58.253Z,2.35
2019-03-04T00:59:28.404Z,2.13
2019-03-04T01:02:01.843Z,1.92
2019-03-04T01:04:35.750Z,1.90
2019-03-04T01:07:08.301Z,1.92
2019-03-04T01:09:41.630Z,2.10
2019-03-04T01:12:11.772Z,1.98
2019-03-04T01:14:41.225Z,2.07
2019-03-04T01:17:10.400Z,2.00
2019-03-04T01:19:39.696Z,1.65
2019-03-04T01:22:08.776Z,2.23
2019-03-04T01:24:37.901Z,1.63
2019-03-04T01:27:07.107Z,1.90
2019-03-04T01:29:36.447Z,1.60
2019-03-04T01:32:05.784Z,1.67
2019-03-04T01:34:34.880Z,1.72
2019-03-04T01:37:03.999Z,1.70
2019-03-04T01:39:32.971Z,2.12
2019-03-04T01:42:02.067Z,2.37
2019-03-04T01:44:31.172Z,2.20
2019-03-04T01:47:00.443Z,1.90
2019-03-04T01:49:29.619Z,1.90
2019-03-04T01:51:58.791Z,1.98
2019-03-04T01:54:28.191Z,2.05
2019-03-04T01:56:57.416Z,2.65
2019-03-04T01:59:26.557Z,2.00
2019-03-04T02:01:55.739Z,2.10
2019-03-04T02:04:24.991Z,3.05
2019-03-04T02:06:54.164Z,2.17
2019-03-04T02:09:23.830Z,1.98
2019-03-04T02:11:52.927Z,2.27
2019-03-04T02:14:22.308Z,2.10
2019-03-04T02:16:51.575Z,2.08
2019-03-04T02:19:20.783Z,1.90
2019-03-04T02:21:50.073Z,1.80
2019-03-04T02:24:29.120Z,2.25
2019-03-04T02:26:59.593Z,1.72
2019-03-04T02:29:28.717Z,2.20
2019-03-04T02:31:57.851Z,2.08
2019-03-04T02:34:27.015Z,1.70
2019-03-04T02:36:56.315Z,2.00
2019-03-04T02:39:25.512Z,1.80
2019-03-04T02:41:54.665Z,1.80
2019-03-04T02:44:24.201Z,1.67
2019-03-04T02:46:53.282Z,1.75
2019-03-04T02:49:22.411Z,2.52
2019-03-04T02:51:51.571Z,1.52
2019-03-04T02:54:20.699Z,1.77
2019-03-04T02:56:49.811Z,1.47
2019-03-04T02:59:19.038Z,1.52
2019-03-04T03:01:48.425Z,1.45
2019-03-04T03:04:17.623Z,1.35
2019-03-04T03:06:46.875Z,1.47
2019-03-04T03:09:16.092Z,1.37
2019-03-04T03:11:45.191Z,1.40
2019-03-04T03:14:14.567Z,1.20
2019-03-04T03:16:43.729Z,1.60
2019-03-04T03:19:13.071Z,1.30
2019-03-04T03:21:42.269Z,1.00
2019-03-04T03:24:11.346Z,1.27
2019-03-04T03:26:59.575Z,1.20
2019-03-04T03:29:28.810Z,0.82
2019-03-04T03:31:58.026Z,1.47
2019-03-04T03:34:27.285Z,1.00
2019-03-04T03:36:56.525Z,1.05
2019-03-04T03:39:25.672Z,0.90
2019-03-04T03:41:54.791Z,1.30
2019-03-04T03:44:24.148Z,1.00
2019-03-04T03:46:54.064Z,1.40
2019-03-04T03:49:23.221Z,1.30
2019-03-04T03:51:52.430Z,1.10
2019-03-04T03:54:21.766Z,1.60
2019-03-04T03:56:50.898Z,1.25
2019-03-04T03:59:20.237Z,1.20
2019-03-04T04:01:49.319Z,0.83
2019-03-04T04:04:20.525Z,1.05
2019-03-04T04:06:49.921Z,1.23
2019-03-04T04:09:19.105Z,1.15
2019-03-04T04:11:48.325Z,0.90
2019-03-04T04:14:17.537Z,0.80
2019-03-04T04:16:46.693Z,0.80
2019-03-04T04:19:15.876Z,1.02
2019-03-04T04:21:44.961Z,0.73
2019-03-04T04:24:14.124Z,1.37
2019-03-04T04:26:43.232Z,0.83
2019-03-04T04:29:12.719Z,0.63
2019-03-04T04:31:42.609Z,1.23
2019-03-04T04:34:11.871Z,1.10
2019-03-04T04:36:41.049Z,1.30
2019-03-04T04:39:10.269Z,1.37
2019-03-04T04:41:39.540Z,1.13
2019-03-04T04:44:08.615Z,1.50
2019-03-04T04:46:54.667Z,1.10
2019-03-04T04:49:25.416Z,1.30
2019-03-04T04:51:54.613Z,1.60
2019-03-04T04:54:23.968Z,1.00
2019-03-04T04:56:53.161Z,1.43
2019-03-04T04:59:22.280Z,1.33
2019-03-04T05:01:51.635Z,0.83
2019-03-04T05:04:20.772Z,1.27
2019-03-04T05:06:50.163Z,1.63
2019-03-04T05:09:19.347Z,1.23
2019-03-04T05:11:48.704Z,1.60
2019-03-04T05:14:17.840Z,1.60
2019-03-04T05:16:47.159Z,1.30
2019-03-04T05:19:16.544Z,1.70
2019-03-04T05:21:45.979Z,1.60
2019-03-04T05:24:15.156Z,1.67
2019-03-04T05:26:44.444Z,1.13
2019-03-04T05:29:13.624Z,2.10
2019-03-04T05:31:42.719Z,1.70
2019-03-04T05:34:11.839Z,0.80
2019-03-04T05:36:41.016Z,1.37
2019-03-04T05:39:10.125Z,1.17
2019-03-04T05:41:39.365Z,1.00
2019-03-04T05:44:08.620Z,1.33
2019-03-04T05:46:37.857Z,1.73
2019-03-04T05:49:07.103Z,0.97
2019-03-04T05:51:36.492Z,1.00
2019-03-04T05:54:07.215Z,1.23
2019-03-04T05:56:36.498Z,1.43
2019-03-04T05:59:19.581Z,1.47
2019-03-04T06:02:09.954Z,2.23
2019-03-04T06:04:40.391Z,2.17
2019-03-04T06:07:27.498Z,1.70
2019-03-04T06:10:00.839Z,2.23
2019-03-04T06:12:29.993Z,2.60
2019-03-04T06:14:59.199Z,2.90
2019-03-04T06:17:28.765Z,2.63
2019-03-04T06:20:05.395Z,3.30
2019-03-04T06:22:34.646Z,3.43
2019-03-04T06:25:07.329Z,3.63
2019-03-04T06:27:36.658Z,2.87
2019-03-04T06:30:06.530Z,2.57
2019-03-04T06:32:35.704Z,2.50
2019-03-04T06:35:05.414Z,2.43
2019-03-04T06:37:34.524Z,2.23
2019-03-04T06:40:03.760Z,1.77
2019-03-04T06:42:33.057Z,1.97
2019-03-04T06:45:02.097Z,2.77
2019-03-04T06:47:31.387Z,3.17
2019-03-04T06:50:00.582Z,2.83
2019-03-04T06:52:29.952Z,1.93
2019-03-04T06:55:35.339Z,3.00
2019-03-04T06:58:04.730Z,2.87
2019-03-04T07:01:02.300Z,1.90
2019-03-04T07:03:37.124Z,2.33
2019-03-04T07:06:06.407Z,2.47
2019-03-04T07:09:06.700Z,2.50
2019-03-04T07:11:36.084Z,2.47
2019-03-04T07:14:05.695Z,2.30
2019-03-04T07:16:34.756Z,1.17
2019-03-04T07:19:12.754Z,0.70
2019-03-04T07:21:41.932Z,0.60
2019-03-04T07:24:11.236Z,0.60
2019-03-04T07:26:40.455Z,1.17
2019-03-04T07:29:10.662Z,0.77
2019-03-04T07:31:40.039Z,0.57
2019-03-04T07:34:09.781Z,0.60
2019-03-04T07:36:39.185Z,0.93
2019-03-04T07:39:11.418Z,0.63
2019-03-04T07:41:43.183Z,0.90
2019-03-04T07:44:12.384Z,0.90
2019-03-04T07:46:41.710Z,0.93
2019-03-04T07:49:11.082Z,1.00
2019-03-04T07:51:40.250Z,1.17
2019-03-04T07:54:09.617Z,0.67
2019-03-04T07:56:42.143Z,1.10
2019-03-04T07:59:14.127Z,0.70
2019-03-04T08:01:46.553Z,1.00
2019-03-04T08:04:15.977Z,1.07
2019-03-04T08:06:45.495Z,0.80
2019-03-04T08:09:56.939Z,1.10
2019-03-04T08:12:55.794Z,0.90
2019-03-04T08:15:25.705Z,1.93
2019-03-04T08:17:54.892Z,1.20
2019-03-04T08:20:24.306Z,1.17
2019-03-04T08:22:53.537Z,1.60
2019-03-04T08:25:22.757Z,1.23
2019-03-04T08:27:52.789Z,1.77
2019-03-04T08:30:22.913Z,1.27
2019-03-04T08:32:52.231Z,1.00
2019-03-04T08:35:21.385Z,1.43
2019-03-04T08:37:50.711Z,1.27
2019-03-04T08:40:20.959Z,0.63
2019-03-04T08:42:51.066Z,1.40
2019-03-04T08:45:20.837Z,1.00
2019-03-04T08:47:50.452Z,0.90
2019-03-04T08:50:19.870Z,1.10
2019-03-04T08:52:49.257Z,1.10
2019-03-04T08:55:18.410Z,1.43
2019-03-04T08:57:47.985Z,1.43
2019-03-04T09:00:19.293Z,1.30
2019-03-04T09:02:48.668Z,1.30
2019-03-04T09:05:18.177Z,1.47
2019-03-04T09:07:47.438Z,1.37
2019-03-04T09:10:25.253Z,2.37
2019-03-04T09:12:54.556Z,4.10
2019-03-04T09:15:24.333Z,3.30
2019-03-04T09:17:53.594Z,1.90
2019-03-04T09:20:24.395Z,2.20
2019-03-04T09:22:54.253Z,1.90
2019-03-04T09:25:44.651Z,1.60
2019-03-04T09:28:13.810Z,1.40
2019-03-04T09:30:43.187Z,1.33
2019-03-04T09:33:12.619Z,1.70
2019-03-04T09:35:42.059Z,1.57
2019-03-04T09:38:12.166Z,1.93
2019-03-04T09:40:42.234Z,1.40
2019-03-04T09:43:11.385Z,1.20
2019-03-04T09:45:41.725Z,1.43
2019-03-04T09:48:12.093Z,1.50
2019-03-04T09:50:42.169Z,1.60
2019-03-04T09:53:11.354Z,1.50
2019-03-04T09:55:40.602Z,1.57
2019-03-04T09:58:11.514Z,2.00
2019-03-04T10:00:44.997Z,1.90
2019-03-04T10:03:39.968Z,2.17
2019-03-04T10:06:44.473Z,2.00
2019-03-04T10:09:43.916Z,1.80
2019-03-04T10:13:14.679Z,2.00
2019-03-04T10:16:20.589Z,2.83
2019-03-04T10:19:38.903Z,2.83
2019-03-04T10:22:27.033Z,2.40
2019-03-04T10:25:35.198Z,3.17
2019-03-04T10:28:33.896Z,2.43
2019-03-04T10:31:40.170Z,2.40
2019-03-04T10:34:42.831Z,2.63
2019-03-04T10:37:50.337Z,2.17
2019-03-04T10:40:52.037Z,2.60
2019-03-04T10:43:41.991Z,2.70
2019-03-04T10:46:34.775Z,2.90
2019-03-04T10:49:03.938Z,2.57
2019-03-04T10:51:33.182Z,2.50
2019-03-04T10:54:02.262Z,2.80
2019-03-04T10:56:31.654Z,1.83
2019-03-04T10:59:00.826Z,2.97
2019-03-04T11:01:30.772Z,2.27
2019-03-04T11:04:00.128Z,2.30
2019-03-04T11:06:29.279Z,2.83
2019-03-04T11:08:58.464Z,2.77
2019-03-04T11:11:30.139Z,3.07
2019-03-04T11:13:58.590Z,2.20
2019-03-04T11:16:27.990Z,3.70
2019-03-04T11:18:57.198Z,2.73
2019-03-04T11:21:26.543Z,2.67
2019-03-04T11:23:55.704Z,3.37
2019-03-04T11:26:25.517Z,2.97
2019-03-04T11:28:54.878Z,2.43
2019-03-04T11:31:24.161Z,2.77
2019-03-04T11:33:53.257Z,2.13
2019-03-04T11:36:22.518Z,3.27
2019-03-04T11:38:55.716Z,2.77
2019-03-04T11:41:24.877Z,2.93
2019-03-04T11:43:54.097Z,3.60
2019-03-04T11:46:24.700Z,3.90
2019-03-04T11:48:54.948Z,3.07
2019-03-04T11:51:24.389Z,3.63
2019-03-04T11:53:54.396Z,3.10
2019-03-04T11:56:23.575Z,2.93
2019-03-04T11:59:11.743Z,3.47
2019-03-04T12:01:44.435Z,3.90
2019-03-04T12:04:13.576Z,2.33
2019-03-04T12:06:43.317Z,3.30
2019-03-04T12:09:16.049Z,2.77
2019-03-04T12:11:45.185Z,1.70
2019-03-04T12:14:14.362Z,2.50
2019-03-04T12:16:43.532Z,2.37
2019-03-04T12:19:12.763Z,1.90
2019-03-04T12:21:41.911Z,2.80
2019-03-04T12:24:11.330Z,2.63
2019-03-04T12:26:40.564Z,2.10
2019-03-04T12:29:09.905Z,2.40
2019-03-04T12:31:47.709Z,3.10
2019-03-04T12:34:24.821Z,2.90
2019-03-04T12:36:53.339Z,2.03
2019-03-04T12:39:22.599Z,1.90
2019-03-04T12:41:51.808Z,2.60
2019-03-04T12:44:20.996Z,3.27
2019-03-04T12:46:50.089Z,2.30
2019-03-04T12:49:19.317Z,2.33
2019-03-04T12:51:48.597Z,2.50
2019-03-04T12:54:18.329Z,2.53
2019-03-04T12:56:47.508Z,1.93
2019-03-04T12:59:16.897Z,2.00
2019-03-04T13:01:46.115Z,2.23
2019-03-04T13:04:15.276Z,2.90
2019-03-04T13:06:44.557Z,2.13
2019-03-04T13:09:14.955Z,2.00
2019-03-04T13:11:44.446Z,2.17
2019-03-04T13:14:13.591Z,2.13
2019-03-04T13:16:42.815Z,2.00
2019-03-04T13:19:11.911Z,2.20
2019-03-04T13:21:41.177Z,2.63
2019-03-04T13:24:10.364Z,1.80
2019-03-04T13:26:39.555Z,2.37
2019-03-04T13:29:08.969Z,2.37
2019-03-04T13:31:38.245Z,2.10
2019-03-04T13:34:07.667Z,2.37
2019-03-04T13:36:36.835Z,2.20
2019-03-04T13:39:07.907Z,2.20
2019-03-04T13:41:37.821Z,1.90
2019-03-04T13:44:07.272Z,1.47
2019-03-04T13:46:36.692Z,1.97
2019-03-04T13:49:05.960Z,1.57
2019-03-04T13:51:35.613Z,2.47
2019-03-04T13:54:04.983Z,2.13
2019-03-04T13:56:34.206Z,2.73
2019-03-04T13:59:03.316Z,2.27
2019-03-04T14:01:32.496Z,3.37
2019-03-04T14:04:01.715Z,2.10
2019-03-04T14:06:30.820Z,2.40
2019-03-04T14:09:22.307Z,2.47
2019-03-04T14:11:51.626Z,2.33
2019-03-04T14:14:20.867Z,2.30
2019-03-04T14:16:50.207Z,1.70
2019-03-04T14:19:19.280Z,2.07
2019-03-04T14:21:48.531Z,3.30
2019-03-04T14:24:17.657Z,2.00
2019-03-04T14:26:46.928Z,2.70
2019-03-04T14:29:16.092Z,1.97
2019-03-04T14:31:45.208Z,2.60
2019-03-04T14:34:15.062Z,2.93
2019-03-04T14:36:44.348Z,1.87
2019-03-04T14:39:15.623Z,1.63
2019-03-04T14:41:44.956Z,2.07
2019-03-04T14:44:14.173Z,2.50
2019-03-04T14:46:43.303Z,2.10
2019-03-04T14:49:12.412Z,1.90
2019-03-04T14:51:41.489Z,2.60
2019-03-04T14:54:29.855Z,2.63
2019-03-04T14:56:59.137Z,2.50
2019-03-04T14:59:28.549Z,3.33
2019-03-04T15:01:57.572Z,2.73
2019-03-04T15:04:26.748Z,1.90
2019-03-04T15:06:55.908Z,3.03
2019-03-04T15:09:25.890Z,2.37
2019-03-04T15:11:55.199Z,3.07
2019-03-04T15:14:24.587Z,2.47
2019-03-04T15:17:02.764Z,2.77
2019-03-04T15:19:24.662Z,2.10
2019-03-04T15:21:53.811Z,2.80
2019-03-04T15:24:22.995Z,3.07
2019-03-04T15:26:52.261Z,2.23
2019-03-04T15:29:21.390Z,2.80
2019-03-04T15:31:50.651Z,2.13
2019-03-04T15:34:19.798Z,2.10
2019-03-04T15:36:49.113Z,2.30
2019-03-04T15:39:22.858Z,2.43
2019-03-04T15:41:50.292Z,1.93
2019-03-04T15:44:19.734Z,2.77
2019-03-04T15:46:49.440Z,2.30
2019-03-04T15:49:18.720Z,3.90
2019-03-04T15:51:48.048Z,3.97
2019-03-04T15:54:17.323Z,4.87
2019-03-04T15:56:46.396Z,4.87
2019-03-04T15:59:15.833Z,3.53
2019-03-04T16:01:45.219Z,3.30
2019-03-04T16:04:14.406Z,3.40
2019-03-04T16:06:43.885Z,2.33
2019-03-04T16:09:18.444Z,2.03
2019-03-04T16:11:47.707Z,2.47
2019-03-04T16:14:36.089Z,1.97
2019-03-04T16:17:07.260Z,2.53
2019-03-04T16:19:36.632Z,1.47
2019-03-04T16:22:05.830Z,2.20
2019-03-04T16:24:34.962Z,2.43
2019-03-04T16:27:14.671Z,2.13
2019-03-04T16:29:43.851Z,2.23
2019-03-04T16:32:13.043Z,2.30
2019-03-04T16:34:42.171Z,3.13
2019-03-04T16:37:11.287Z,3.33
2019-03-04T16:39:40.480Z,3.13
2019-03-04T16:42:09.660Z,2.73
2019-03-04T16:44:40.016Z,2.97
2019-03-04T16:47:09.598Z,3.73
2019-03-04T16:49:38.852Z,2.90
2019-03-04T16:52:09.206Z,3.63
2019-03-04T16:54:38.439Z,3.03
2019-03-04T16:57:15.078Z,3.23
2019-03-04T16:59:44.475Z,3.00
2019-03-04T17:02:13.910Z,2.40
2019-03-04T17:04:43.080Z,3.30
2019-03-04T17:07:12.491Z,3.00
2019-03-04T17:09:41.619Z,2.90
2019-03-04T17:12:10.904Z,3.10
2019-03-04T17:14:40.432Z,2.53
2019-03-04T17:17:13.759Z,2.80
2019-03-04T17:19:42.880Z,3.47
2019-03-04T17:22:12.038Z,2.97
2019-03-04T17:24:41.246Z,3.27
2019-03-04T17:27:10.689Z,2.80
2019-03-04T17:29:40.023Z,3.90
2019-03-04T17:32:09.552Z,3.60
2019-03-04T17:34:38.772Z,3.90
2019-03-04T17:37:07.989Z,3.30
2019-03-04T17:39:37.151Z,3.83
2019-03-04T17:42:06.283Z,2.73
2019-03-04T17:44:35.631Z,3.53
2019-03-04T17:47:04.849Z,2.97
2019-03-04T17:49:34.025Z,2.73
2019-03-04T17:52:03.202Z,2.67
2019-03-04T17:54:32.315Z,3.27
2019-03-04T17:57:01.414Z,2.77
2019-03-04T17:59:30.710Z,3.20
2019-03-04T18:02:00.116Z,3.20
2019-03-04T18:04:29.206Z,2.57
2019-03-04T18:06:58.438Z,2.60
2019-03-04T18:09:27.582Z,3.07
2019-03-04T18:11:56.840Z,2.87
2019-03-04T18:14:26.173Z,2.30
2019-03-04T18:16:55.299Z,3.73
2019-03-04T18:19:24.612Z,4.83
2019-03-04T18:21:54.146Z,2.40
2019-03-04T18:24:23.522Z,3.10
2019-03-04T18:27:03.010Z,3.47
2019-03-04T18:30:12.993Z,3.27
2019-03-04T18:33:22.881Z,3.40
2019-03-04T18:36:17.480Z,2.70
2019-03-04T18:39:15.501Z,3.10
2019-03-04T18:41:51.936Z,2.73
2019-03-04T18:44:50.171Z,2.87
2019-03-04T18:47:37.803Z,3.77
2019-03-04T18:50:07.019Z,3.03
2019-03-04T18:52:36.212Z,2.60
2019-03-04T18:55:05.595Z,2.63
2019-03-04T18:57:35.255Z,2.70
2019-03-04T19:00:07.439Z,2.37
2019-03-04T19:02:36.724Z,2.40
2019-03-04T19:05:06.399Z,2.90
2019-03-04T19:07:35.598Z,2.27
2019-03-04T19:10:05.822Z,2.00
2019-03-04T19:12:35.095Z,2.10
2019-03-04T19:15:05.389Z,1.90
2019-03-04T19:17:34.685Z,2.07
2019-03-04T19:20:04.260Z,1.80
2019-03-04T19:22:33.524Z,1.93
2019-03-04T19:25:02.697Z,2.63
2019-03-04T19:27:31.846Z,1.90
2019-03-04T19:30:01.037Z,1.10
2019-03-04T19:32:30.197Z,1.50
2019-03-04T19:34:59.451Z,1.20
2019-03-04T19:37:28.632Z,1.47
2019-03-04T19:39:57.951Z,1.30
2019-03-04T19:42:27.138Z,1.70
2019-03-04T19:44:56.398Z,1.63
2019-03-04T19:47:25.740Z,1.87
2019-03-04T19:49:54.863Z,1.87
2019-03-04T19:52:24.304Z,1.93
2019-03-04T19:54:53.590Z,2.60
2019-03-04T19:57:23.161Z,2.47
2019-03-04T19:59:52.475Z,2.80
2019-03-04T20:02:21.944Z,2.10
2019-03-04T20:04:51.094Z,2.60
2019-03-04T20:07:20.436Z,3.37
2019-03-04T20:09:49.982Z,2.60
2019-03-04T20:12:19.343Z,2.20
2019-03-04T20:14:48.543Z,1.83
2019-03-04T20:17:18.091Z,3.20
2019-03-04T20:19:47.334Z,2.97
2019-03-04T20:22:16.516Z,2.80
2019-03-04T20:24:45.679Z,1.80
2019-03-04T20:27:15.209Z,3.53
2019-03-04T20:29:44.423Z,2.60
2019-03-04T20:32:13.658Z,2.77
2019-03-04T20:34:42.919Z,2.40
2019-03-04T20:37:12.221Z,2.23
2019-03-04T20:39:41.419Z,2.47
2019-03-04T20:42:10.885Z,3.07
2019-03-04T20:44:39.964Z,3.10
2019-03-04T20:47:09.225Z,2.37
2019-03-04T20:49:38.574Z,2.37
2019-03-04T20:52:07.899Z,3.17
2019-03-04T20:54:37.227Z,2.67
2019-03-04T20:57:06.336Z,3.13
2019-03-04T20:59:35.778Z,2.27
2019-03-04T21:02:05.403Z,2.57
2019-03-04T21:04:34.497Z,2.43
2019-03-04T21:07:22.924Z,2.20
2019-03-04T21:09:52.224Z,2.40
2019-03-04T21:12:21.507Z,2.77
2019-03-04T21:14:50.879Z,1.83
2019-03-04T21:17:19.958Z,2.60
2019-03-04T21:19:49.183Z,2.50
2019-03-04T21:22:18.555Z,2.93
2019-03-04T21:24:47.978Z,2.17
2019-03-04T21:27:17.336Z,2.20
2019-03-04T21:30:08.379Z,2.47
2019-03-04T21:32:54.203Z,2.17
2019-03-04T21:35:59.807Z,2.57
2019-03-04T21:38:48.251Z,2.90
2019-03-04T21:42:00.199Z,3.13
2019-03-04T21:45:01.276Z,2.83
2019-03-04T21:47:37.216Z,2.67
2019-03-04T21:50:08.484Z,2.90
2019-03-04T21:53:02.480Z,3.80
2019-03-04T21:55:37.426Z,3.60
2019-03-04T21:58:06.969Z,3.20
2019-03-04T22:00:56.901Z,2.60
2019-03-04T22:03:29.464Z,2.70
2019-03-04T22:05:59.146Z,3.93
2019-03-04T22:08:28.453Z,3.00
2019-03-04T22:10:58.783Z,3.00
2019-03-04T22:13:27.917Z,3.50
2019-03-04T22:15:57.165Z,2.67
2019-03-04T22:18:26.357Z,3.07
2019-03-04T22:20:55.626Z,3.07
2019-03-04T22:23:24.980Z,2.87
2019-03-04T22:26:01.543Z,3.60
2019-03-04T22:28:25.020Z,3.23
2019-03-04T22:30:54.280Z,3.80
2019-03-04T22:33:23.580Z,2.80
2019-03-04T22:35:52.728Z,2.37
2019-03-04T22:38:21.928Z,3.10
2019-03-04T22:40:51.056Z,2.57
2019-03-04T22:43:20.375Z,2.70
2019-03-04T22:45:49.537Z,2.90
2019-03-04T22:48:18.943Z,2.83
2019-03-04T22:50:48.196Z,3.03
2019-03-04T22:53:17.619Z,2.93
2019-03-04T22:55:47.193Z,4.77
2019-03-04T22:58:27.822Z,3.23
2019-03-04T23:01:30.343Z,2.97
2019-03-04T23:04:08.940Z,3.17
2019-03-04T23:06:38.547Z,2.40
2019-03-04T23:09:10.258Z,3.37
2019-03-04T23:11:45.909Z,2.73
2019-03-04T23:14:19.280Z,2.83
2019-03-04T23:16:48.361Z,2.90
2019-03-04T23:19:17.683Z,2.77
2019-03-04T23:21:46.824Z,3.17
2019-03-04T23:24:15.995Z,2.27
2019-03-04T23:26:45.251Z,2.23
2019-03-04T23:29:14.339Z,2.10
2019-03-04T23:31:43.519Z,2.60
2019-03-04T23:34:12.648Z,3.23
2019-03-04T23:36:41.761Z,2.70
2019-03-04T23:39:11.169Z,2.77
2019-03-04T23:41:40.370Z,3.00
2019-03-04T23:44:09.488Z,2.93
2019-03-04T23:46:38.604Z,3.00
2019-03-04T23:49:07.818Z,3.07
2019-03-04T23:51:36.939Z,3.57
2019-03-04T23:54:06.312Z,2.30
2019-03-04T23:56:35.637Z,2.27
2019-03-04T23:59:05.140Z,1.70
